createdAt,value
2022-11-08T00:00:42.954Z,8.65
2022-11-08T00:03:13.762Z,8.64
2022-11-08T00:05:59.746Z,8.69
2022-11-08T00:08:44.818Z,8.66
2022-11-08T00:11:32.730Z,8.71
2022-11-08T00:14:00.639Z,8.68
2022-11-08T00:16:29.202Z,8.66
2022-11-08T00:18:57.378Z,8.57
2022-11-08T00:21:25.338Z,8.63
2022-11-08T00:23:53.450Z,8.63
2022-11-08T00:26:22.700Z,8.53
2022-11-08T00:28:50.632Z,8.56
2022-11-08T00:31:18.513Z,8.56
2022-11-08T00:33:46.449Z,8.55
2022-11-08T00:36:14.614Z,8.53
2022-11-08T00:38:43.276Z,8.45
2022-11-08T00:41:11.505Z,8.43
2022-11-08T00:43:40.686Z,8.36
2022-11-08T00:46:08.787Z,8.37
2022-11-08T00:48:37.033Z,8.36
2022-11-08T00:51:06.439Z,8.28
2022-11-08T00:53:34.820Z,8.25
2022-11-08T00:56:03.500Z,8.27
2022-11-08T00:58:31.316Z,8.23
2022-11-08T01:01:00.825Z,8.19
2022-11-08T01:03:28.582Z,8.13
2022-11-08T01:05:56.472Z,8.10
2022-11-08T01:08:27.557Z,8.05
2022-11-08T01:10:55.462Z,8.04
2022-11-08T01:13:24.148Z,8.00
2022-11-08T01:15:54.034Z,8.03
2022-11-08T01:18:23.423Z,8.02
2022-11-08T01:20:51.518Z,8.03
2022-11-08T01:23:20.413Z,8.04
2022-11-08T01:25:49.786Z,8.00
2022-11-08T01:28:17.983Z,7.99
2022-11-08T01:30:46.555Z,7.96
2022-11-08T01:33:15.948Z,8.01
2022-11-08T01:35:46.846Z,8.01
2022-11-08T01:38:15.108Z,7.97
2022-11-08T01:40:45.478Z,8.04
2022-11-08T01:43:39.302Z,7.78
2022-11-08T01:46:32.687Z,8.04
2022-11-08T01:49:25.733Z,7.99
2022-11-08T01:52:00.568Z,7.99
2022-11-08T01:54:34.046Z,7.93
2022-11-08T01:57:05.215Z,7.94
2022-11-08T01:59:35.331Z,7.88
2022-11-08T02:02:03.433Z,7.92
2022-11-08T02:04:31.441Z,7.99
2022-11-08T02:07:00.946Z,7.95
2022-11-08T02:09:29.702Z,7.96
2022-11-08T02:11:58.702Z,7.97
2022-11-08T02:14:26.862Z,7.96
2022-11-08T02:16:54.721Z,7.94
2022-11-08T02:19:31.130Z,7.93
2022-11-08T02:22:04.263Z,7.91
2022-11-08T02:24:33.512Z,7.91
2022-11-08T02:27:02.424Z,7.95
2022-11-08T02:29:32.029Z,7.92
2022-11-08T02:32:01.430Z,7.87
2022-11-08T02:34:31.602Z,7.86
2022-11-08T02:37:00.595Z,7.85
2022-11-08T02:39:28.913Z,7.87
2022-11-08T02:42:00.472Z,7.87
2022-11-08T02:44:28.513Z,7.91
2022-11-08T02:46:57.303Z,7.87
2022-11-08T02:49:25.432Z,7.91
2022-11-08T02:51:55.062Z,7.93
2022-11-08T02:54:23.347Z,7.92
2022-11-08T02:56:51.242Z,7.91
2022-11-08T02:59:20.491Z,7.85
2022-11-08T03:01:48.512Z,7.92
2022-11-08T03:04:16.361Z,7.92
2022-11-08T03:06:44.218Z,7.93
2022-11-08T03:09:12.359Z,7.95
2022-11-08T03:11:40.330Z,7.85
2022-11-08T03:14:08.336Z,7.86
2022-11-08T03:16:37.709Z,7.86
2022-11-08T03:19:05.851Z,7.95
2022-11-08T03:21:35.950Z,7.99
2022-11-08T03:24:04.017Z,7.94
2022-11-08T03:26:32.597Z,7.86
2022-11-08T03:29:00.482Z,7.83
2022-11-08T03:31:28.342Z,7.88
2022-11-08T03:33:57.765Z,7.85
2022-11-08T03:36:25.540Z,7.92
2022-11-08T03:38:53.508Z,7.92
2022-11-08T03:41:21.348Z,7.90
2022-11-08T03:43:49.548Z,7.91
2022-11-08T03:46:17.384Z,7.91
2022-11-08T03:48:45.276Z,7.82
2022-11-08T03:51:15.036Z,7.86
2022-11-08T03:53:42.980Z,7.88
2022-11-08T03:56:10.773Z,7.85
2022-11-08T03:58:38.802Z,7.84
2022-11-08T04:01:07.444Z,7.85
2022-11-08T04:03:35.772Z,7.86
2022-11-08T04:06:04.709Z,7.87
2022-11-08T04:08:33.981Z,7.86
2022-11-08T04:11:22.678Z,7.85
2022-11-08T04:14:08.281Z,7.78
2022-11-08T04:16:36.168Z,7.78
2022-11-08T04:19:21.820Z,7.85
2022-11-08T04:21:52.202Z,7.89
2022-11-08T04:24:21.837Z,7.90
2022-11-08T04:26:49.631Z,7.85
2022-11-08T04:29:20.003Z,7.80
2022-11-08T04:31:47.989Z,7.78
2022-11-08T04:34:15.913Z,7.80
2022-11-08T04:36:43.712Z,7.78
2022-11-08T04:39:11.728Z,7.84
2022-11-08T04:41:41.256Z,7.74
2022-11-08T04:44:10.372Z,7.86
2022-11-08T04:46:38.375Z,7.87
2022-11-08T04:49:06.170Z,7.82
2022-11-08T04:51:35.305Z,7.71
2022-11-08T04:54:06.365Z,7.76
2022-11-08T04:56:34.296Z,7.70
2022-11-08T04:59:05.248Z,7.72
2022-11-08T05:01:36.432Z,7.76
2022-11-08T05:04:04.496Z,7.74
2022-11-08T05:06:33.058Z,7.76
2022-11-08T05:09:01.539Z,7.74
2022-11-08T05:11:31.331Z,7.70
2022-11-08T05:13:59.576Z,7.69
2022-11-08T05:16:31.122Z,7.66
2022-11-08T05:18:59.385Z,7.71
2022-11-08T05:21:45.629Z,7.74
2022-11-08T05:24:16.471Z,7.72
2022-11-08T05:26:46.441Z,7.73
2022-11-08T05:29:16.138Z,7.72
2022-11-08T05:31:45.782Z,7.77
2022-11-08T05:34:13.835Z,7.78
2022-11-08T05:36:41.820Z,7.76
2022-11-08T05:39:10.114Z,7.73
2022-11-08T05:41:38.156Z,7.73
2022-11-08T05:44:06.138Z,7.75
2022-11-08T05:46:34.023Z,7.80
2022-11-08T05:49:03.314Z,7.75
2022-11-08T05:51:32.532Z,7.71
2022-11-08T05:54:00.395Z,7.70
2022-11-08T05:56:28.311Z,7.72
2022-11-08T05:58:56.405Z,7.68
2022-11-08T06:01:24.234Z,7.71
2022-11-08T06:03:52.460Z,7.73
2022-11-08T06:06:22.778Z,7.72
2022-11-08T06:08:52.477Z,7.76
2022-11-08T06:11:23.687Z,7.72
2022-11-08T06:13:52.342Z,7.74
2022-11-08T06:16:21.469Z,7.75
2022-11-08T06:18:49.381Z,7.74
2022-11-08T06:21:19.462Z,7.64
2022-11-08T06:23:49.207Z,7.72
2022-11-08T06:26:17.427Z,7.73
2022-11-08T06:28:45.219Z,7.74
2022-11-08T06:31:13.757Z,7.74
2022-11-08T06:33:41.601Z,7.85
2022-11-08T06:36:09.804Z,7.80
2022-11-08T06:38:37.695Z,7.81
2022-11-08T06:41:07.038Z,7.76
2022-11-08T06:43:35.158Z,7.78
2022-11-08T06:46:03.417Z,7.82
2022-11-08T06:48:35.805Z,7.81
2022-11-08T06:51:08.319Z,7.80
2022-11-08T06:53:36.172Z,7.81
2022-11-08T06:56:04.667Z,7.83
2022-11-08T06:58:34.028Z,7.81
2022-11-08T07:01:04.867Z,7.87
2022-11-08T07:03:32.940Z,7.87
2022-11-08T07:06:02.960Z,7.84
2022-11-08T07:08:30.955Z,7.87
2022-11-08T07:10:59.206Z,7.88
2022-11-08T07:13:27.152Z,7.88
2022-11-08T07:15:58.690Z,7.87
2022-11-08T07:18:27.444Z,7.88
2022-11-08T07:20:59.647Z,7.88
2022-11-08T07:23:27.558Z,7.91
2022-11-08T07:25:55.907Z,7.92
2022-11-08T07:28:23.753Z,7.95
2022-11-08T07:30:51.848Z,8.04
2022-11-08T07:33:21.383Z,8.05
2022-11-08T07:35:49.578Z,8.07
2022-11-08T07:38:17.415Z,8.01
2022-11-08T07:40:45.231Z,7.98
2022-11-08T07:43:13.448Z,8.01
2022-11-08T07:45:42.007Z,7.95
2022-11-08T07:48:13.473Z,7.92
2022-11-08T07:50:44.151Z,7.94
2022-11-08T07:53:12.012Z,7.95
2022-11-08T07:55:41.255Z,7.88
2022-11-08T07:58:12.030Z,7.98
2022-11-08T08:00:42.286Z,7.92
2022-11-08T08:03:11.962Z,7.92
2022-11-08T08:05:41.933Z,7.91
2022-11-08T08:08:12.330Z,7.88
2022-11-08T08:10:40.620Z,7.89
2022-11-08T08:13:08.642Z,7.89
2022-11-08T08:15:36.520Z,7.86
2022-11-08T08:18:06.887Z,7.85
2022-11-08T08:20:35.430Z,7.87
2022-11-08T08:23:03.322Z,7.91
2022-11-08T08:25:32.553Z,7.90
2022-11-08T08:28:02.146Z,7.91
2022-11-08T08:30:31.762Z,7.92
2022-11-08T08:35:54.148Z,7.99
2022-11-08T08:38:22.622Z,8.02
2022-11-08T08:40:51.912Z,8.11
2022-11-08T08:43:20.376Z,8.24
2022-11-08T08:45:48.855Z,8.35
2022-11-08T08:48:19.360Z,8.41
2022-11-08T08:50:48.353Z,8.37
2022-11-08T08:53:16.761Z,8.33
2022-11-08T08:55:45.096Z,8.31
2022-11-08T08:58:14.611Z,8.27
2022-11-08T09:03:31.607Z,8.22
2022-11-08T09:05:59.611Z,8.14
2022-11-08T09:08:27.559Z,8.16
2022-11-08T09:10:56.034Z,8.13
2022-11-08T09:13:27.280Z,8.11
2022-11-08T09:15:55.767Z,8.17
2022-11-08T09:18:24.339Z,8.20
2022-11-08T09:20:52.430Z,8.18
2022-11-08T09:23:20.398Z,8.21
2022-11-08T09:25:48.487Z,8.23
2022-11-08T09:28:16.701Z,8.26
2022-11-08T09:30:45.889Z,8.28
2022-11-08T09:33:13.998Z,8.26
2022-11-08T09:35:41.944Z,8.28
2022-11-08T09:38:09.714Z,8.27
2022-11-08T09:40:41.948Z,8.33
2022-11-08T09:43:32.120Z,8.45
2022-11-08T09:46:01.512Z,8.34
2022-11-08T09:48:33.282Z,8.36
2022-11-08T09:51:06.656Z,8.36
2022-11-08T09:53:42.235Z,8.34
2022-11-08T09:56:17.705Z,8.40
2022-11-08T09:58:54.284Z,8.49
2022-11-08T10:01:27.483Z,8.52
2022-11-08T10:03:58.808Z,8.53
2022-11-08T10:07:02.470Z,8.52
2022-11-08T10:09:55.920Z,8.51
2022-11-08T10:12:32.735Z,8.52
2022-11-08T10:15:13.632Z,8.52
2022-11-08T10:18:06.189Z,8.55
2022-11-08T10:20:48.097Z,8.55
2022-11-08T10:23:22.610Z,8.59
2022-11-08T10:25:54.889Z,8.56
2022-11-08T10:28:27.433Z,8.59
2022-11-08T10:30:57.143Z,8.64
2022-11-08T10:33:33.302Z,8.59
2022-11-08T10:36:07.027Z,8.51
2022-11-08T10:38:46.103Z,8.63
2022-11-08T10:41:20.917Z,8.63
2022-11-08T10:43:53.365Z,8.72
2022-11-08T10:46:36.011Z,8.66
2022-11-08T10:49:14.342Z,8.66
2022-11-08T10:51:44.017Z,8.64
2022-11-08T10:54:50.552Z,8.67
2022-11-08T10:57:23.760Z,8.76
2022-11-08T10:59:52.091Z,8.84
2022-11-08T11:02:23.319Z,8.77
2022-11-08T11:04:54.638Z,8.71
2022-11-08T11:07:40.679Z,8.82
2022-11-08T11:10:23.677Z,8.86
2022-11-08T11:12:53.343Z,8.85
2022-11-08T11:15:21.402Z,8.78
2022-11-08T11:17:49.511Z,8.79
2022-11-08T11:20:24.988Z,8.74
2022-11-08T11:22:54.359Z,8.74
2022-11-08T11:25:25.169Z,8.80
2022-11-08T11:27:57.519Z,8.80
2022-11-08T11:30:31.490Z,8.78
2022-11-08T11:33:06.310Z,8.76
2022-11-08T11:35:45.227Z,8.65
2022-11-08T11:38:23.726Z,8.61
2022-11-08T11:40:56.725Z,8.53
2022-11-08T11:43:30.820Z,8.54
2022-11-08T11:46:06.494Z,8.49
2022-11-08T11:48:40.905Z,8.61
2022-11-08T11:51:11.841Z,8.55
2022-11-08T11:53:42.604Z,8.56
2022-11-08T11:56:32.632Z,8.57
2022-11-08T11:59:25.141Z,8.49
2022-11-08T12:02:09.715Z,8.50
2022-11-08T12:05:09.402Z,8.41
2022-11-08T12:07:46.386Z,8.32
2022-11-08T12:10:24.458Z,8.30
2022-11-08T12:13:02.097Z,8.45
2022-11-08T12:15:36.303Z,8.51
2022-11-08T12:18:41.036Z,8.48
2022-11-08T12:21:13.714Z,8.45
2022-11-08T12:23:58.818Z,8.43
2022-11-08T12:26:33.744Z,8.49
2022-11-08T12:29:22.449Z,8.52
2022-11-08T12:31:59.799Z,8.57
2022-11-08T12:34:37.743Z,8.60
2022-11-08T12:37:18.378Z,8.56
2022-11-08T12:39:50.805Z,8.53
2022-11-08T12:42:34.929Z,8.59
2022-11-08T12:45:24.257Z,8.53
2022-11-08T12:48:02.551Z,8.48
2022-11-08T12:50:37.467Z,8.47
2022-11-08T12:53:48.555Z,8.50
2022-11-08T12:56:23.359Z,8.69
2022-11-08T12:58:52.525Z,8.62
2022-11-08T13:01:22.639Z,8.63
2022-11-08T13:04:21.301Z,8.63
2022-11-08T13:06:57.680Z,8.66
2022-11-08T13:09:40.025Z,8.68
2022-11-08T13:12:33.662Z,8.69
2022-11-08T13:15:02.742Z,8.68
2022-11-08T13:17:31.866Z,8.65
2022-11-08T13:20:05.721Z,8.62
2022-11-08T13:22:44.040Z,8.62
2022-11-08T13:25:36.758Z,8.61
2022-11-08T13:28:40.370Z,8.60
2022-11-08T13:31:33.264Z,8.55
2022-11-08T13:34:38.471Z,8.57
2022-11-08T13:37:20.077Z,8.53
2022-11-08T13:40:17.984Z,8.49
2022-11-08T13:43:01.408Z,8.45
2022-11-08T13:45:35.991Z,8.41
2022-11-08T13:48:06.956Z,8.34
2022-11-08T13:50:52.943Z,8.32
2022-11-08T13:53:45.473Z,8.30
2022-11-08T13:56:40.988Z,8.24
2022-11-08T13:59:48.650Z,8.22
2022-11-08T14:02:51.177Z,8.23
2022-11-08T14:05:30.374Z,8.19
2022-11-08T14:08:22.979Z,8.17
2022-11-08T14:11:29.844Z,8.13
2022-11-08T14:14:39.833Z,8.09
2022-11-08T14:17:20.168Z,8.08
2022-11-08T14:19:51.561Z,8.03
2022-11-08T14:22:23.181Z,8.05
2022-11-08T14:24:53.805Z,8.03
2022-11-08T14:27:36.738Z,7.97
2022-11-08T14:30:06.848Z,7.96
2022-11-08T14:32:34.813Z,7.96
2022-11-08T14:35:20.306Z,7.94
2022-11-08T14:37:48.527Z,7.99
2022-11-08T14:40:24.877Z,7.95
2022-11-08T14:42:53.881Z,7.92
2022-11-08T14:45:26.065Z,7.91
2022-11-08T14:48:00.122Z,7.87
2022-11-08T14:50:32.579Z,7.88
2022-11-08T14:53:26.825Z,7.87
2022-11-08T14:56:12.364Z,7.82
2022-11-08T14:58:40.441Z,7.82
2022-11-08T15:01:10.291Z,7.84
2022-11-08T15:03:39.148Z,7.83
2022-11-08T15:06:14.326Z,7.83
2022-11-08T15:08:49.440Z,7.88
2022-11-08T15:11:28.685Z,7.83
2022-11-08T15:14:00.464Z,7.85
2022-11-08T15:16:28.797Z,7.88
2022-11-08T15:18:57.278Z,7.83
2022-11-08T15:21:31.608Z,7.88
2022-11-08T15:24:13.714Z,7.81
2022-11-08T15:27:01.730Z,7.84
2022-11-08T15:29:29.606Z,7.86
2022-11-08T15:32:01.944Z,7.84
2022-11-08T15:34:37.873Z,7.84
2022-11-08T15:37:28.094Z,7.80
2022-11-08T15:39:56.705Z,7.81
2022-11-08T15:42:25.918Z,7.82
2022-11-08T15:45:06.289Z,7.85
2022-11-08T15:47:38.132Z,7.82
2022-11-08T15:50:15.692Z,7.81
2022-11-08T15:52:46.692Z,7.82
2022-11-08T15:55:17.676Z,7.86
2022-11-08T15:57:47.749Z,7.82
2022-11-08T16:00:17.914Z,7.83
2022-11-08T16:02:47.037Z,7.81
2022-11-08T16:05:17.388Z,7.81
2022-11-08T16:07:48.123Z,7.80
2022-11-08T16:10:18.992Z,7.83
2022-11-08T16:12:48.779Z,7.77
2022-11-08T16:15:18.850Z,7.76
2022-11-08T16:17:46.926Z,7.76
2022-11-08T16:20:23.347Z,7.78
2022-11-08T16:22:52.755Z,7.77
2022-11-08T16:25:23.297Z,7.78
2022-11-08T16:27:54.335Z,7.75
2022-11-08T16:30:26.499Z,7.76
2022-11-08T16:32:54.412Z,7.73
2022-11-08T16:35:22.403Z,7.73
2022-11-08T16:37:52.565Z,7.76
2022-11-08T16:40:22.886Z,7.74
2022-11-08T16:42:52.587Z,7.74
2022-11-08T16:45:43.529Z,7.75
2022-11-08T16:48:17.643Z,7.75
2022-11-08T16:50:46.254Z,7.82
2022-11-08T16:53:20.561Z,7.75
2022-11-08T16:55:49.269Z,7.83
2022-11-08T16:58:17.709Z,7.81
2022-11-08T17:00:46.766Z,7.86
2022-11-08T17:03:19.623Z,7.83
2022-11-08T17:05:47.949Z,7.85
2022-11-08T17:08:17.114Z,7.91
2022-11-08T17:10:47.120Z,7.89
2022-11-08T17:13:16.186Z,7.86
2022-11-08T17:15:44.865Z,7.86
2022-11-08T17:18:14.961Z,7.90
2022-11-08T17:20:43.366Z,7.93
2022-11-08T17:23:12.214Z,7.92
2022-11-08T17:25:42.967Z,7.82
2022-11-08T17:28:13.214Z,7.95
2022-11-08T17:30:44.413Z,7.96
2022-11-08T17:33:13.802Z,7.97
2022-11-08T17:35:44.227Z,8.01
2022-11-08T17:38:12.495Z,8.03
2022-11-08T17:40:42.508Z,8.02
2022-11-08T17:43:13.675Z,8.01
2022-11-08T17:45:42.411Z,8.00
2022-11-08T17:48:10.260Z,8.03
2022-11-08T17:50:38.094Z,8.07
2022-11-08T17:53:06.011Z,8.11
2022-11-08T17:55:33.787Z,8.20
2022-11-08T17:58:01.613Z,8.20
2022-11-08T18:00:30.969Z,8.28
2022-11-08T18:02:59.098Z,8.23
2022-11-08T18:05:27.652Z,8.23
2022-11-08T18:07:55.673Z,8.28
2022-11-08T18:10:23.546Z,8.29
2022-11-08T18:12:51.648Z,8.24
2022-11-08T18:15:19.886Z,8.30
2022-11-08T18:17:49.334Z,8.30
2022-11-08T18:20:17.431Z,8.29
2022-11-08T18:22:45.983Z,8.29
2022-11-08T18:25:14.114Z,8.32
2022-11-08T18:27:42.221Z,8.33
2022-11-08T18:30:11.395Z,8.40
2022-11-08T18:32:39.199Z,8.42
2022-11-08T18:35:10.761Z,8.49
2022-11-08T18:37:38.696Z,8.55
2022-11-08T18:40:07.934Z,8.49
2022-11-08T18:42:36.082Z,8.48
2022-11-08T18:45:04.226Z,8.51
2022-11-08T18:47:33.287Z,8.61
2022-11-08T18:50:02.139Z,8.58
2022-11-08T18:52:31.517Z,8.62
2022-11-08T18:54:59.413Z,8.72
2022-11-08T18:57:27.286Z,8.68
2022-11-08T19:00:00.676Z,8.76
2022-11-08T19:02:29.055Z,8.72
2022-11-08T19:04:57.376Z,8.73
2022-11-08T19:07:25.231Z,8.71
2022-11-08T19:10:01.008Z,8.75
2022-11-08T19:12:29.796Z,8.80
2022-11-08T19:14:57.871Z,8.95
2022-11-08T19:17:25.683Z,8.86
2022-11-08T19:19:53.605Z,8.99
2022-11-08T19:22:21.421Z,9.01
2022-11-08T19:24:49.155Z,9.03
2022-11-08T19:27:18.710Z,9.02
2022-11-08T19:29:46.529Z,9.03
2022-11-08T19:32:14.531Z,9.07
2022-11-08T19:34:42.888Z,9.07
2022-11-08T19:37:11.181Z,9.15
2022-11-08T19:39:39.141Z,9.14
2022-11-08T19:42:07.194Z,9.10
2022-11-08T19:44:37.549Z,9.19
2022-11-08T19:47:05.704Z,9.18
2022-11-08T19:49:35.545Z,9.18
2022-11-08T19:52:03.490Z,9.32
2022-11-08T19:54:31.295Z,9.39
2022-11-08T19:57:06.740Z,9.36
2022-11-08T19:59:36.154Z,9.43
2022-11-08T20:02:04.250Z,9.44
2022-11-08T20:04:32.170Z,9.44
2022-11-08T20:07:00.328Z,9.36
2022-11-08T20:09:30.802Z,9.31
2022-11-08T20:11:59.041Z,9.43
2022-11-08T20:14:27.144Z,9.46
2022-11-08T20:16:56.431Z,9.43
2022-11-08T20:19:24.396Z,9.39
2022-11-08T20:21:55.247Z,9.38
2022-11-08T20:24:23.435Z,9.41
2022-11-08T20:26:51.357Z,9.49
2022-11-08T20:29:19.124Z,9.44
2022-11-08T20:31:48.123Z,9.48
2022-11-08T20:34:18.748Z,9.50
2022-11-08T20:36:47.041Z,9.55
2022-11-08T20:39:16.097Z,9.58
2022-11-08T20:41:44.405Z,9.49
2022-11-08T20:44:13.121Z,9.50
2022-11-08T20:46:41.172Z,9.52
2022-11-08T20:49:09.864Z,9.56
2022-11-08T20:51:39.269Z,9.53
2022-11-08T20:54:07.727Z,9.67
2022-11-08T20:56:35.845Z,9.70
2022-11-08T20:59:03.747Z,9.69
2022-11-08T21:01:32.780Z,9.68
2022-11-08T21:04:01.023Z,9.78
2022-11-08T21:06:35.513Z,9.75
2022-11-08T21:11:54.510Z,9.83
2022-11-08T21:14:23.826Z,9.83
2022-11-08T21:17:20.116Z,9.81
2022-11-08T21:19:40.239Z,9.75
2022-11-08T21:22:17.639Z,9.88
2022-11-08T21:24:48.044Z,9.91
2022-11-08T21:27:16.254Z,9.89
2022-11-08T21:29:44.321Z,9.94
2022-11-08T21:32:12.236Z,9.99
2022-11-08T21:34:45.647Z,9.96
2022-11-08T21:37:14.129Z,10.01
2022-11-08T21:39:42.217Z,9.95
2022-11-08T21:42:11.580Z,9.91
2022-11-08T21:44:39.478Z,9.97
2022-11-08T21:47:07.309Z,9.97
2022-11-08T21:49:37.070Z,10.00
2022-11-08T21:52:05.741Z,9.94
2022-11-08T21:54:33.487Z,9.89
2022-11-08T21:57:01.236Z,9.88
2022-11-08T21:59:30.461Z,9.96
2022-11-08T22:01:58.418Z,10.01
2022-11-08T22:04:26.187Z,10.04
2022-11-08T22:06:53.987Z,10.01
2022-11-08T22:09:21.934Z,9.95
2022-11-08T22:11:49.717Z,9.94
2022-11-08T22:14:17.443Z,10.02
2022-11-08T22:16:46.944Z,9.96
2022-11-08T22:19:15.029Z,9.93
2022-11-08T22:21:46.172Z,9.92
2022-11-08T22:24:17.102Z,9.80
2022-11-08T22:26:45.594Z,9.81
2022-11-08T22:29:14.322Z,9.78
2022-11-08T22:31:49.410Z,9.75
2022-11-08T22:34:24.898Z,9.73
2022-11-08T22:36:53.340Z,9.73
2022-11-08T22:39:25.762Z,9.78
2022-11-08T22:42:00.709Z,9.71
2022-11-08T22:44:32.306Z,9.63
2022-11-08T22:47:07.468Z,9.65
2022-11-08T22:49:44.859Z,9.59
2022-11-08T22:52:16.168Z,9.69
2022-11-08T22:54:48.937Z,9.57
2022-11-08T22:57:22.066Z,9.50
2022-11-08T23:00:00.114Z,9.56
2022-11-08T23:02:33.665Z,9.50
2022-11-08T23:05:03.381Z,9.51
2022-11-08T23:07:34.532Z,9.59
2022-11-08T23:10:09.809Z,9.66
2022-11-08T23:12:57.529Z,9.65
2022-11-08T23:15:50.327Z,9.57
2022-11-08T23:18:20.803Z,9.56
2022-11-08T23:21:16.687Z,9.53
2022-11-08T23:24:04.484Z,9.59
2022-11-08T23:26:49.655Z,9.56
2022-11-08T23:29:35.059Z,9.67
2022-11-08T23:32:02.731Z,9.73
2022-11-08T23:34:30.804Z,9.72
2022-11-08T23:37:01.416Z,9.73
2022-11-08T23:39:29.761Z,9.71
2022-11-08T23:42:15.019Z,9.71
2022-11-08T23:44:42.956Z,9.69
2022-11-08T23:47:11.489Z,9.81
2022-11-08T23:49:39.286Z,9.87
2022-11-08T23:52:08.447Z,9.94
2022-11-08T23:54:36.562Z,10.00
2022-11-08T23:57:04.405Z,9.96
2022-11-08T23:59:32.247Z,9.91
